sensor_id;sensor_type;location;lat;lon;timestamp;pressure;altitude;pressure_sealevel;temperature;humidity
72116;BME280;59991;52.140;5.428;2023-04-25T00:00:30;101090.84;;;6.20;95.90
72116;BME280;59991;52.140;5.428;2023-04-25T00:01:03;101092.78;;;6.19;95.60
72116;BME280;59991;52.140;5.428;2023-04-25T00:01:35;101090.41;;;6.18;95.87
72116;BME280;59991;52.140;5.428;2023-04-25T00:02:08;101093.44;;;6.16;95.50
72116;BME280;59991;52.140;5.428;2023-04-25T00:02:40;101095.75;;;6.14;95.63
72116;BME280;59991;52.140;5.428;2023-04-25T00:03:12;101093.38;;;6.13;95.49
72116;BME280;59991;52.140;5.428;2023-04-25T00:03:45;101097.53;;;6.10;96.00
72116;BME280;59991;52.140;5.428;2023-04-25T00:04:17;101100.25;;;6.10;95.67
72116;BME280;59991;52.140;5.428;2023-04-25T00:04:49;101097.88;;;6.09;96.12
72116;BME280;59991;52.140;5.428;2023-04-25T00:05:21;101100.59;;;6.09;96.31
72116;BME280;59991;52.140;5.428;2023-04-25T00:05:54;101098.22;;;6.07;95.85
72116;BME280;59991;52.140;5.428;2023-04-25T00:06:28;101101.25;;;6.06;95.83
72116;BME280;59991;52.140;5.428;2023-04-25T00:07:01;101099.00;;;6.08;96.10
72116;BME280;59991;52.140;5.428;2023-04-25T00:07:33;101102.50;;;6.08;96.35
72116;BME280;59991;52.140;5.428;2023-04-25T00:08:06;101106.00;;;6.09;96.60
72116;BME280;59991;52.140;5.428;2023-04-25T00:08:37;101102.16;;;6.10;96.51
72116;BME280;59991;52.140;5.428;2023-04-25T00:09:09;101107.59;;;6.10;96.55
72116;BME280;59991;52.140;5.428;2023-04-25T00:09:42;101108.38;;;6.10;96.37
72116;BME280;59991;52.140;5.428;2023-04-25T00:10:13;101100.25;;;6.10;96.76
72116;BME280;59991;52.140;5.428;2023-04-25T00:10:45;101106.78;;;6.09;96.76
72116;BME280;59991;52.140;5.428;2023-04-25T00:11:16;101108.72;;;6.09;96.56
72116;BME280;59991;52.140;5.428;2023-04-25T00:11:48;101099.78;;;6.08;96.49
72116;BME280;59991;52.140;5.428;2023-04-25T00:12:20;101107.91;;;6.08;96.84
72116;BME280;59991;52.140;5.428;2023-04-25T00:12:52;101115.69;;;6.10;96.67
72116;BME280;59991;52.140;5.428;2023-04-25T00:13:25;101116.50;;;6.10;96.88
72116;BME280;59991;52.140;5.428;2023-04-25T00:13:57;101108.38;;;6.10;97.06
72116;BME280;59991;52.140;5.428;2023-04-25T00:14:29;101111.06;;;6.10;97.09
72116;BME280;59991;52.140;5.428;2023-04-25T00:15:01;101111.06;;;6.10;97.02
72116;BME280;59991;52.140;5.428;2023-04-25T00:15:33;101113.44;;;6.12;96.66
72116;BME280;59991;52.140;5.428;2023-04-25T00:16:07;101105.31;;;6.12;96.90
72116;BME280;59991;52.140;5.428;2023-04-25T00:16:39;101110.75;;;6.12;96.91
72116;BME280;59991;52.140;5.428;2023-04-25T00:17:12;101113.09;;;6.13;96.58
72116;BME280;59991;52.140;5.428;2023-04-25T00:17:44;101112.31;;;6.13;96.74
72116;BME280;59991;52.140;5.428;2023-04-25T00:18:16;101113.09;;;6.13;96.48
72116;BME280;59991;52.140;5.428;2023-04-25T00:18:49;101098.78;;;6.13;96.83
72116;BME280;59991;52.140;5.428;2023-04-25T00:19:22;101115.47;;;6.15;97.19
72116;BME280;59991;52.140;5.428;2023-04-25T00:19:54;101110.41;;;6.13;96.83
72116;BME280;59991;52.140;5.428;2023-04-25T00:20:26;101113.09;;;6.13;96.98
72116;BME280;59991;52.140;5.428;2023-04-25T00:20:57;101116.94;;;6.12;96.82
72116;BME280;59991;52.140;5.428;2023-04-25T00:21:29;101113.44;;;6.12;96.74
72116;BME280;59991;52.140;5.428;2023-04-25T00:22:02;101122.69;;;6.11;97.03
72116;BME280;59991;52.140;5.428;2023-04-25T00:22:34;101109.50;;;6.09;96.85
72116;BME280;59991;52.140;5.428;2023-04-25T00:23:06;101114.47;;;6.07;96.46
72116;BME280;59991;52.140;5.428;2023-04-25T00:23:37;101110.19;;;6.06;96.19
72116;BME280;59991;52.140;5.428;2023-04-25T00:24:10;101112.88;;;6.06;96.62
72116;BME280;59991;52.140;5.428;2023-04-25T00:24:41;101120.22;;;6.06;96.57
72116;BME280;59991;52.140;5.428;2023-04-25T00:25:13;101116.72;;;6.05;96.19
72116;BME280;59991;52.140;5.428;2023-04-25T00:25:45;101119.75;;;6.04;96.06
72116;BME280;59991;52.140;5.428;2023-04-25T00:26:16;101117.06;;;6.04;96.56
72116;BME280;59991;52.140;5.428;2023-04-25T00:26:48;101115.94;;;6.05;96.58
72116;BME280;59991;52.140;5.428;2023-04-25T00:27:19;101113.56;;;6.03;96.33
72116;BME280;59991;52.140;5.428;2023-04-25T00:27:51;101115.13;;;6.04;96.59
72116;BME280;59991;52.140;5.428;2023-04-25T00:28:22;101115.94;;;6.05;96.70
72116;BME280;59991;52.140;5.428;2023-04-25T00:28:54;101117.50;;;6.06;96.60
72116;BME280;59991;52.140;5.428;2023-04-25T00:29:25;101116.72;;;6.05;96.78
72116;BME280;59991;52.140;5.428;2023-04-25T00:29:57;101114.81;;;6.06;96.54
72116;BME280;59991;52.140;5.428;2023-04-25T00:30:28;101112.09;;;6.06;96.14
72116;BME280;59991;52.140;5.428;2023-04-25T00:30:59;101112.09;;;6.06;96.00
72116;BME280;59991;52.140;5.428;2023-04-25T00:31:31;101112.09;;;6.06;96.50
72116;BME280;59991;52.140;5.428;2023-04-25T00:32:03;101115.94;;;6.05;96.90
72116;BME280;59991;52.140;5.428;2023-04-25T00:32:34;101120.53;;;6.04;96.92
72116;BME280;59991;52.140;5.428;2023-04-25T00:33:06;101113.56;;;6.03;96.40
72116;BME280;59991;52.140;5.428;2023-04-25T00:33:38;101118.19;;;6.03;96.65
72116;BME280;59991;52.140;5.428;2023-04-25T00:34:09;101112.75;;;6.03;96.54
72116;BME280;59991;52.140;5.428;2023-04-25T00:34:41;101114.69;;;6.02;96.77
72116;BME280;59991;52.140;5.428;2023-04-25T00:35:29;101114.34;;;6.04;96.83
72116;BME280;59991;52.140;5.428;2023-04-25T00:36:01;101116.25;;;6.03;96.78
72116;BME280;59991;52.140;5.428;2023-04-25T00:36:32;101115.47;;;6.03;96.82
72116;BME280;59991;52.140;5.428;2023-04-25T00:37:04;101113.56;;;6.03;96.58
72116;BME280;59991;52.140;5.428;2023-04-25T00:37:36;101118.19;;;6.03;96.63
72116;BME280;59991;52.140;5.428;2023-04-25T00:38:07;101119.75;;;6.04;96.40
72116;BME280;59991;52.140;5.428;2023-04-25T00:38:39;101122.81;;;6.02;96.37
72116;BME280;59991;52.140;5.428;2023-04-25T00:39:12;101120.09;;;6.02;96.32
72116;BME280;59991;52.140;5.428;2023-04-25T00:39:44;101119.75;;;6.04;95.98
72116;BME280;59991;52.140;5.428;2023-04-25T00:40:15;101111.63;;;6.04;96.20
72116;BME280;59991;52.140;5.428;2023-04-25T00:40:47;101118.19;;;6.03;96.03
72116;BME280;59991;52.140;5.428;2023-04-25T00:41:19;101118.97;;;6.03;96.81
72116;BME280;59991;52.140;5.428;2023-04-25T00:41:53;101120.53;;;6.04;96.48
72116;BME280;59991;52.140;5.428;2023-04-25T00:42:25;101122.47;;;6.04;96.29
72116;BME280;59991;52.140;5.428;2023-04-25T00:42:57;101114.34;;;6.04;96.24
72116;BME280;59991;52.140;5.428;2023-04-25T00:43:30;101119.75;;;6.04;96.36
72116;BME280;59991;52.140;5.428;2023-04-25T00:44:03;101127.09;;;6.03;96.18
72116;BME280;59991;52.140;5.428;2023-04-25T00:44:35;101116.25;;;6.03;95.95
72116;BME280;59991;52.140;5.428;2023-04-25T00:45:12;101122.81;;;6.02;95.92
72116;BME280;59991;52.140;5.428;2023-04-25T00:45:47;101115.47;;;6.03;96.33
72116;BME280;59991;52.140;5.428;2023-04-25T00:46:18;101123.59;;;6.03;95.89
72116;BME280;59991;52.140;5.428;2023-04-25T00:46:50;101124.72;;;6.02;96.05
72116;BME280;59991;52.140;5.428;2023-04-25T00:47:22;101123.94;;;6.01;96.10
72116;BME280;59991;52.140;5.428;2023-04-25T00:47:55;101126.63;;;6.01;95.45
72116;BME280;59991;52.140;5.428;2023-04-25T00:48:26;101118.06;;;5.99;95.75
72116;BME280;59991;52.140;5.428;2023-04-25T00:48:58;101125.41;;;5.99;95.32
72116;BME280;59991;52.140;5.428;2023-04-25T00:49:30;101122.69;;;5.99;95.36
72116;BME280;59991;52.140;5.428;2023-04-25T00:50:02;101126.19;;;5.99;95.91
72116;BME280;59991;52.140;5.428;2023-04-25T00:50:34;101125.84;;;6.01;95.50
72116;BME280;59991;52.140;5.428;2023-04-25T00:51:05;101126.97;;;6.00;96.03
72116;BME280;59991;52.140;5.428;2023-04-25T00:51:37;101125.84;;;6.01;95.60
72116;BME280;59991;52.140;5.428;2023-04-25T00:52:09;101123.13;;;6.01;95.66
72116;BME280;59991;52.140;5.428;2023-04-25T00:52:43;101126.63;;;6.01;95.95
72116;BME280;59991;52.140;5.428;2023-04-25T00:53:15;101125.84;;;6.01;95.81
72116;BME280;59991;52.140;5.428;2023-04-25T00:53:49;101127.44;;;6.02;95.60
72116;BME280;59991;52.140;5.428;2023-04-25T00:54:21;101126.63;;;6.01;95.77
72116;BME280;59991;52.140;5.428;2023-04-25T00:54:53;101123.94;;;6.01;95.92
72116;BME280;59991;52.140;5.428;2023-04-25T00:55:25;101124.72;;;6.02;95.99
72116;BME280;59991;52.140;5.428;2023-04-25T00:55:56;101130.13;;;6.02;95.88
72116;BME280;59991;52.140;5.428;2023-04-25T00:56:28;101125.50;;;6.02;96.13
72116;BME280;59991;52.140;5.428;2023-04-25T00:57:00;101132.84;;;6.02;96.19
72116;BME280;59991;52.140;5.428;2023-04-25T00:57:32;101121.69;;;6.03;95.77
72116;BME280;59991;52.140;5.428;2023-04-25T00:58:04;101121.69;;;6.03;96.02
72116;BME280;59991;52.140;5.428;2023-04-25T00:58:36;101126.31;;;6.03;96.31
72116;BME280;59991;52.140;5.428;2023-04-25T00:59:09;101124.38;;;6.03;95.96
72116;BME280;59991;52.140;5.428;2023-04-25T00:59:44;101122.00;;;6.02;95.57
72116;BME280;59991;52.140;5.428;2023-04-25T01:00:16;101123.94;;;6.01;95.35
72116;BME280;59991;52.140;5.428;2023-04-25T01:00:49;101126.19;;;5.99;96.06
72116;BME280;59991;52.140;5.428;2023-04-25T01:01:22;101119.63;;;6.00;95.67
72116;BME280;59991;52.140;5.428;2023-04-25T01:01:53;101116.47;;;5.98;95.91
72116;BME280;59991;52.140;5.428;2023-04-25T01:02:25;101120.31;;;5.97;95.68
72116;BME280;59991;52.140;5.428;2023-04-25T01:02:58;101117.59;;;5.97;95.79
72116;BME280;59991;52.140;5.428;2023-04-25T01:03:32;101123.03;;;5.97;95.54
72116;BME280;59991;52.140;5.428;2023-04-25T01:04:04;101118.41;;;5.98;95.94
72116;BME280;59991;52.140;5.428;2023-04-25T01:04:36;101121.91;;;5.98;95.83
72116;BME280;59991;52.140;5.428;2023-04-25T01:05:08;101123.81;;;5.98;96.06
72116;BME280;59991;52.140;5.428;2023-04-25T01:05:41;101116.47;;;5.98;95.93
72116;BME280;59991;52.140;5.428;2023-04-25T01:06:13;101120.31;;;5.97;95.79
72116;BME280;59991;52.140;5.428;2023-04-25T01:06:45;101121.09;;;5.98;95.96
72116;BME280;59991;52.140;5.428;2023-04-25T01:07:16;101118.41;;;5.98;95.68
72116;BME280;59991;52.140;5.428;2023-04-25T01:07:47;101121.09;;;5.98;95.58
72116;BME280;59991;52.140;5.428;2023-04-25T01:08:21;101123.03;;;5.97;95.74
72116;BME280;59991;52.140;5.428;2023-04-25T01:08:54;101119.53;;;5.97;95.99
72116;BME280;59991;52.140;5.428;2023-04-25T01:09:45;101126.53;;;5.98;96.23
72116;BME280;59991;52.140;5.428;2023-04-25T01:10:17;101120.31;;;5.97;95.81
72116;BME280;59991;52.140;5.428;2023-04-25T01:10:48;101122.22;;;5.97;95.71
72116;BME280;59991;52.140;5.428;2023-04-25T01:11:19;101111.78;;;5.95;96.03
72116;BME280;59991;52.140;5.428;2023-04-25T01:11:51;101115.25;;;5.96;95.98
72116;BME280;59991;52.140;5.428;2023-04-25T01:12:23;101122.59;;;5.95;95.92
72116;BME280;59991;52.140;5.428;2023-04-25T01:12:55;101118.31;;;5.94;95.91
72116;BME280;59991;52.140;5.428;2023-04-25T01:13:26;101121.00;;;5.94;96.16
72116;BME280;59991;52.140;5.428;2023-04-25T01:13:58;101124.84;;;5.93;96.00
72116;BME280;59991;52.140;5.428;2023-04-25T01:14:30;101122.94;;;5.94;95.65
72116;BME280;59991;52.140;5.428;2023-04-25T01:15:01;101130.25;;;5.93;95.63
72116;BME280;59991;52.140;5.428;2023-04-25T01:15:33;101124.84;;;5.93;95.75
72116;BME280;59991;52.140;5.428;2023-04-25T01:16:06;101126.75;;;5.93;95.47
72116;BME280;59991;52.140;5.428;2023-04-25T01:16:38;101125.19;;;5.92;95.64
72116;BME280;59991;52.140;5.428;2023-04-25T01:17:10;101132.19;;;5.93;95.64
72116;BME280;59991;52.140;5.428;2023-04-25T01:17:42;101127.91;;;5.92;95.16
72116;BME280;59991;52.140;5.428;2023-04-25T01:18:15;101127.09;;;5.91;95.17
72116;BME280;59991;52.140;5.428;2023-04-25T01:18:47;101130.94;;;5.90;95.42
72116;BME280;59991;52.140;5.428;2023-04-25T01:19:19;101124.72;;;5.89;95.31
72116;BME280;59991;52.140;5.428;2023-04-25T01:19:51;101124.72;;;5.89;95.24
72116;BME280;59991;52.140;5.428;2023-04-25T01:20:22;101130.16;;;5.89;95.44
72116;BME280;59991;52.140;5.428;2023-04-25T01:20:54;101130.44;;;5.88;95.63
72116;BME280;59991;52.140;5.428;2023-04-25T01:21:26;101133.16;;;5.88;95.37
72116;BME280;59991;52.140;5.428;2023-04-25T01:22:01;101127.75;;;5.88;95.32
72116;BME280;59991;52.140;5.428;2023-04-25T01:22:32;101133.97;;;5.88;95.28
72116;BME280;59991;52.140;5.428;2023-04-25T01:23:04;101132.38;;;5.87;95.27
72116;BME280;59991;52.140;5.428;2023-04-25T01:23:37;101133.16;;;5.88;95.10
72116;BME280;59991;52.140;5.428;2023-04-25T01:24:09;101134.28;;;5.87;95.00
72116;BME280;59991;52.140;5.428;2023-04-25T01:24:41;101133.81;;;5.85;95.13
72116;BME280;59991;52.140;5.428;2023-04-25T01:25:13;101133.81;;;5.85;95.25
72116;BME280;59991;52.140;5.428;2023-04-25T01:25:45;101136.53;;;5.85;95.58
72116;BME280;59991;52.140;5.428;2023-04-25T01:26:17;101138.44;;;5.84;95.42
72116;BME280;59991;52.140;5.428;2023-04-25T01:26:49;101140.38;;;5.84;95.26
72116;BME280;59991;52.140;5.428;2023-04-25T01:27:21;101137.19;;;5.82;95.32
72116;BME280;59991;52.140;5.428;2023-04-25T01:27:54;101141.81;;;5.81;94.70
72116;BME280;59991;52.140;5.428;2023-04-25T01:28:25;101144.53;;;5.81;95.17
72116;BME280;59991;52.140;5.428;2023-04-25T01:28:57;101149.16;;;5.81;95.01
72116;BME280;59991;52.140;5.428;2023-04-25T01:29:30;101137.88;;;5.79;94.65
72116;BME280;59991;52.140;5.428;2023-04-25T01:30:02;101144.41;;;5.78;94.74
72116;BME280;59991;52.140;5.428;2023-04-25T01:30:34;101144.41;;;5.78;95.04
72116;BME280;59991;52.140;5.428;2023-04-25T01:31:07;101147.13;;;5.78;94.67
72116;BME280;59991;52.140;5.428;2023-04-25T01:31:38;101148.28;;;5.77;94.64
72116;BME280;59991;52.140;5.428;2023-04-25T01:32:10;101141.63;;;5.74;94.95
72116;BME280;59991;52.140;5.428;2023-04-25T01:32:42;101142.75;;;5.73;94.96
72116;BME280;59991;52.140;5.428;2023-04-25T01:33:15;101143.88;;;5.72;94.85
72116;BME280;59991;52.140;5.428;2023-04-25T01:33:47;101147.69;;;5.71;94.99
72116;BME280;59991;52.140;5.428;2023-04-25T01:34:19;101149.94;;;5.69;94.42
72116;BME280;59991;52.140;5.428;2023-04-25T01:34:50;101145.66;;;5.68;94.80
72116;BME280;59991;52.140;5.428;2023-04-25T01:35:22;101147.13;;;5.66;94.36
72116;BME280;59991;52.140;5.428;2023-04-25T01:35:55;101147.13;;;5.66;94.48
72116;BME280;59991;52.140;5.428;2023-04-25T01:36:26;101149.38;;;5.64;94.32
72116;BME280;59991;52.140;5.428;2023-04-25T01:36:59;101140.44;;;5.63;94.32
72116;BME280;59991;52.140;5.428;2023-04-25T01:37:32;101144.28;;;5.62;94.37
72116;BME280;59991;52.140;5.428;2023-04-25T01:38:03;101141.13;;;5.60;94.32
72116;BME280;59991;52.140;5.428;2023-04-25T01:38:34;101143.38;;;5.58;94.14
72116;BME280;59991;52.140;5.428;2023-04-25T01:39:07;101139.91;;;5.58;94.09
72116;BME280;59991;52.140;5.428;2023-04-25T01:39:39;101145.31;;;5.58;94.57
72116;BME280;59991;52.140;5.428;2023-04-25T01:40:11;101142.59;;;5.58;94.50
72116;BME280;59991;52.140;5.428;2023-04-25T01:40:45;101144.53;;;5.57;95.02
72116;BME280;59991;52.140;5.428;2023-04-25T01:41:16;101146.44;;;5.57;94.62
72116;BME280;59991;52.140;5.428;2023-04-25T01:41:49;101152.97;;;5.55;94.35
72116;BME280;59991;52.140;5.428;2023-04-25T01:42:21;101145.19;;;5.54;94.94
72116;BME280;59991;52.140;5.428;2023-04-25T01:42:52;101143.28;;;5.54;94.51
72116;BME280;59991;52.140;5.428;2023-04-25T01:43:24;101148.69;;;5.54;95.01
72116;BME280;59991;52.140;5.428;2023-04-25T01:43:55;101145.19;;;5.54;94.54
72116;BME280;59991;52.140;5.428;2023-04-25T01:44:27;101150.94;;;5.52;94.89
72116;BME280;59991;52.140;5.428;2023-04-25T01:44:58;101149.00;;;5.53;95.07
72116;BME280;59991;52.140;5.428;2023-04-25T01:45:30;101150.47;;;5.50;94.80
72116;BME280;59991;52.140;5.428;2023-04-25T01:46:02;101150.81;;;5.49;95.29
72116;BME280;59991;52.140;5.428;2023-04-25T01:46:34;101151.94;;;5.48;95.37
72116;BME280;59991;52.140;5.428;2023-04-25T01:47:06;101148.75;;;5.46;94.77
72116;BME280;59991;52.140;5.428;2023-04-25T01:47:38;101148.75;;;5.46;94.62
72116;BME280;59991;52.140;5.428;2023-04-25T01:48:12;101147.50;;;5.43;94.41
72116;BME280;59991;52.140;5.428;2023-04-25T01:48:44;101151.34;;;5.42;94.63
72116;BME280;59991;52.140;5.428;2023-04-25T01:49:16;101147.06;;;5.41;95.08
72116;BME280;59991;52.140;5.428;2023-04-25T01:49:48;101150.09;;;5.40;94.41
72116;BME280;59991;52.140;5.428;2023-04-25T01:50:19;101142.34;;;5.38;94.55
72116;BME280;59991;52.140;5.428;2023-04-25T01:50:51;101147.38;;;5.40;94.77
72116;BME280;59991;52.140;5.428;2023-04-25T01:51:23;101149.31;;;5.39;94.89
72116;BME280;59991;52.140;5.428;2023-04-25T01:51:54;101143.88;;;5.39;95.04
72116;BME280;59991;52.140;5.428;2023-04-25T01:52:25;101150.88;;;5.40;94.48
72116;BME280;59991;52.140;5.428;2023-04-25T01:52:57;101149.31;;;5.39;94.91
72116;BME280;59991;52.140;5.428;2023-04-25T01:53:29;101151.66;;;5.41;94.62
72116;BME280;59991;52.140;5.428;2023-04-25T01:54:01;101149.75;;;5.41;95.18
72116;BME280;59991;52.140;5.428;2023-04-25T01:54:32;101146.25;;;5.41;95.03
72116;BME280;59991;52.140;5.428;2023-04-25T01:55:05;101149.31;;;5.39;94.68
72116;BME280;59991;52.140;5.428;2023-04-25T01:55:36;101150.09;;;5.40;94.71
72116;BME280;59991;52.140;5.428;2023-04-25T01:56:08;101155.50;;;5.40;94.66
72116;BME280;59991;52.140;5.428;2023-04-25T01:56:39;101152.00;;;5.39;94.30
72116;BME280;59991;52.140;5.428;2023-04-25T01:57:12;101154.72;;;5.39;94.35
72116;BME280;59991;52.140;5.428;2023-04-25T01:57:43;101155.88;;;5.38;94.62
72116;BME280;59991;52.140;5.428;2023-04-25T01:58:14;101153.50;;;5.37;94.72
72116;BME280;59991;52.140;5.428;2023-04-25T01:58:46;101150.78;;;5.37;94.63
72116;BME280;59991;52.140;5.428;2023-04-25T01:59:18;101150.00;;;5.36;94.81
72116;BME280;59991;52.140;5.428;2023-04-25T01:59:51;101156.97;;;5.37;94.64
72116;BME280;59991;52.140;5.428;2023-04-25T02:00:23;101156.19;;;5.37;95.13
72116;BME280;59991;52.140;5.428;2023-04-25T02:00:54;101158.09;;;5.36;94.97
72116;BME280;59991;52.140;5.428;2023-04-25T02:01:26;101158.09;;;5.36;94.63
72116;BME280;59991;52.140;5.428;2023-04-25T02:02:16;101157.97;;;5.33;94.49
72116;BME280;59991;52.140;5.428;2023-04-25T02:02:47;101157.97;;;5.33;94.77
72116;BME280;59991;52.140;5.428;2023-04-25T02:03:19;101155.28;;;5.33;94.50
72116;BME280;59991;52.140;5.428;2023-04-25T02:03:51;101155.28;;;5.33;94.47
72116;BME280;59991;52.140;5.428;2023-04-25T02:04:23;101157.97;;;5.33;95.10
72116;BME280;59991;52.140;5.428;2023-04-25T02:04:55;101159.09;;;5.32;95.00
72116;BME280;59991;52.140;5.428;2023-04-25T02:05:27;101158.63;;;5.30;94.60
72116;BME280;59991;52.140;5.428;2023-04-25T02:05:58;101158.97;;;5.28;94.50
72116;BME280;59991;52.140;5.428;2023-04-25T02:06:30;101157.38;;;5.27;94.99
72116;BME280;59991;52.140;5.428;2023-04-25T02:07:03;101162.00;;;5.27;95.04
72116;BME280;59991;52.140;5.428;2023-04-25T02:07:34;101163.91;;;5.26;94.73
72116;BME280;59991;52.140;5.428;2023-04-25T02:08:07;101169.31;;;5.26;94.85
72116;BME280;59991;52.140;5.428;2023-04-25T02:08:39;101164.25;;;5.25;95.06
72116;BME280;59991;52.140;5.428;2023-04-25T02:09:10;101170.78;;;5.24;94.46
72116;BME280;59991;52.140;5.428;2023-04-25T02:09:42;101161.88;;;5.23;94.33
72116;BME280;59991;52.140;5.428;2023-04-25T02:10:13;101165.69;;;5.22;94.82
72116;BME280;59991;52.140;5.428;2023-04-25T02:10:45;101170.00;;;5.23;94.58
72116;BME280;59991;52.140;5.428;2023-04-25T02:11:16;101164.91;;;5.21;94.68
72116;BME280;59991;52.140;5.428;2023-04-25T02:11:48;101163.00;;;5.22;94.90
72116;BME280;59991;52.140;5.428;2023-04-25T02:12:19;101165.69;;;5.22;94.49
72116;BME280;59991;52.140;5.428;2023-04-25T02:12:51;101166.50;;;5.22;94.80
72116;BME280;59991;52.140;5.428;2023-04-25T02:13:22;101168.41;;;5.22;94.22
72116;BME280;59991;52.140;5.428;2023-04-25T02:13:54;101173.03;;;5.21;94.43
72116;BME280;59991;52.140;5.428;2023-04-25T02:14:25;101165.25;;;5.20;94.34
72116;BME280;59991;52.140;5.428;2023-04-25T02:14:57;101163.69;;;5.19;94.46
72116;BME280;59991;52.140;5.428;2023-04-25T02:15:28;101169.09;;;5.19;94.04
72116;BME280;59991;52.140;5.428;2023-04-25T02:16:00;101161.78;;;5.19;94.57
72116;BME280;59991;52.140;5.428;2023-04-25T02:16:31;101160.97;;;5.19;94.14
72116;BME280;59991;52.140;5.428;2023-04-25T02:17:03;101169.53;;;5.21;94.70
72116;BME280;59991;52.140;5.428;2023-04-25T02:17:35;101168.72;;;5.20;94.47
72116;BME280;59991;52.140;5.428;2023-04-25T02:18:07;101169.53;;;5.21;94.32
72116;BME280;59991;52.140;5.428;2023-04-25T02:18:38;101166.50;;;5.22;94.26
72116;BME280;59991;52.140;5.428;2023-04-25T02:19:11;101165.69;;;5.22;94.55
72116;BME280;59991;52.140;5.428;2023-04-25T02:19:42;101168.41;;;5.22;94.67
72116;BME280;59991;52.140;5.428;2023-04-25T02:20:13;101171.09;;;5.22;94.32
72116;BME280;59991;52.140;5.428;2023-04-25T02:20:47;101170.31;;;5.21;94.17
72116;BME280;59991;52.140;5.428;2023-04-25T02:21:18;101171.09;;;5.22;94.65
72116;BME280;59991;52.140;5.428;2023-04-25T02:21:50;101170.31;;;5.21;94.26
72116;BME280;59991;52.140;5.428;2023-04-25T02:22:21;101171.09;;;5.22;94.31
72116;BME280;59991;52.140;5.428;2023-04-25T02:22:53;101173.03;;;5.21;94.32
72116;BME280;59991;52.140;5.428;2023-04-25T02:23:24;101176.50;;;5.22;94.39
72116;BME280;59991;52.140;5.428;2023-04-25T02:23:56;101173.81;;;5.22;94.28
72116;BME280;59991;52.140;5.428;2023-04-25T02:24:28;101169.53;;;5.21;94.69
72116;BME280;59991;52.140;5.428;2023-04-25T02:24:59;101172.22;;;5.21;94.28
72116;BME280;59991;52.140;5.428;2023-04-25T02:25:31;101174.13;;;5.20;93.94
72116;BME280;59991;52.140;5.428;2023-04-25T02:26:03;101174.13;;;5.20;94.42
72116;BME280;59991;52.140;5.428;2023-04-25T02:26:34;101170.22;;;5.18;93.97
72116;BME280;59991;52.140;5.428;2023-04-25T02:27:05;101172.59;;;5.19;94.02
72116;BME280;59991;52.140;5.428;2023-04-25T02:27:37;101162.91;;;5.18;94.51
72116;BME280;59991;52.140;5.428;2023-04-25T02:28:08;101164.47;;;5.19;94.34
72116;BME280;59991;52.140;5.428;2023-04-25T02:28:40;101171.00;;;5.18;94.72
72116;BME280;59991;52.140;5.428;2023-04-25T02:29:12;101167.50;;;5.18;94.26
72116;BME280;59991;52.140;5.428;2023-04-25T02:29:43;101169.41;;;5.17;94.50
72116;BME280;59991;52.140;5.428;2023-04-25T02:30:15;101169.41;;;5.17;94.30
72116;BME280;59991;52.140;5.428;2023-04-25T02:30:46;101167.84;;;5.16;94.07
72116;BME280;59991;52.140;5.428;2023-04-25T02:31:18;101172.47;;;5.16;93.70
72116;BME280;59991;52.140;5.428;2023-04-25T02:31:49;101165.47;;;5.15;93.96
72116;BME280;59991;52.140;5.428;2023-04-25T02:32:21;101173.56;;;5.15;93.96
72116;BME280;59991;52.140;5.428;2023-04-25T02:32:53;101169.28;;;5.14;93.91
72116;BME280;59991;52.140;5.428;2023-04-25T02:33:24;101172.78;;;5.14;94.04
72116;BME280;59991;52.140;5.428;2023-04-25T02:33:56;101169.28;;;5.14;94.07
72116;BME280;59991;52.140;5.428;2023-04-25T02:34:27;101170.41;;;5.13;94.28
72116;BME280;59991;52.140;5.428;2023-04-25T02:34:58;101173.13;;;5.13;94.61
72116;BME280;59991;52.140;5.428;2023-04-25T02:35:34;101169.63;;;5.12;94.21
72116;BME280;59991;52.140;5.428;2023-04-25T02:36:06;101178.53;;;5.13;94.11
72116;BME280;59991;52.140;5.428;2023-04-25T02:36:38;101172.66;;;5.11;94.52
72116;BME280;59991;52.140;5.428;2023-04-25T02:37:09;101172.31;;;5.12;94.09
72116;BME280;59991;52.140;5.428;2023-04-25T02:37:42;101175.34;;;5.11;93.88
72116;BME280;59991;52.140;5.428;2023-04-25T02:38:14;101173.78;;;5.10;93.75
72116;BME280;59991;52.140;5.428;2023-04-25T02:38:46;101168.69;;;5.08;94.19
72116;BME280;59991;52.140;5.428;2023-04-25T02:39:17;101176.81;;;5.08;94.37
72116;BME280;59991;52.140;5.428;2023-04-25T02:39:49;101170.59;;;5.08;94.26
72116;BME280;59991;52.140;5.428;2023-04-25T02:40:20;101171.72;;;5.07;94.50
72116;BME280;59991;52.140;5.428;2023-04-25T02:40:52;101172.84;;;5.06;94.51
72116;BME280;59991;52.140;5.428;2023-04-25T02:41:23;101174.75;;;5.05;94.33
72116;BME280;59991;52.140;5.428;2023-04-25T02:41:54;101175.88;;;5.04;94.19
72116;BME280;59991;52.140;5.428;2023-04-25T02:42:26;101178.91;;;5.03;93.99
72116;BME280;59991;52.140;5.428;2023-04-25T02:42:58;101173.84;;;5.01;94.54
72116;BME280;59991;52.140;5.428;2023-04-25T02:43:30;101173.03;;;5.01;94.25
72116;BME280;59991;52.140;5.428;2023-04-25T02:44:01;101170.34;;;5.01;94.90
72116;BME280;59991;52.140;5.428;2023-04-25T02:44:33;101176.53;;;5.01;94.41
72116;BME280;59991;52.140;5.428;2023-04-25T02:45:05;101181.16;;;5.01;94.16
72116;BME280;59991;52.140;5.428;2023-04-25T02:45:36;101181.16;;;5.01;94.23
72116;BME280;59991;52.140;5.428;2023-04-25T02:46:09;101179.59;;;5.00;94.87
72116;BME280;59991;52.140;5.428;2023-04-25T02:46:40;101169.91;;;4.99;94.74
72116;BME280;59991;52.140;5.428;2023-04-25T02:47:12;101172.63;;;4.99;94.51
72116;BME280;59991;52.140;5.428;2023-04-25T02:47:44;101179.59;;;5.00;94.30
72116;BME280;59991;52.140;5.428;2023-04-25T02:48:15;101171.50;;;5.00;94.31
72116;BME280;59991;52.140;5.428;2023-04-25T02:48:47;101178.03;;;4.99;94.72
72116;BME280;59991;52.140;5.428;2023-04-25T02:49:18;101176.44;;;4.98;94.41
72116;BME280;59991;52.140;5.428;2023-04-25T02:49:50;101172.94;;;4.97;95.00
72116;BME280;59991;52.140;5.428;2023-04-25T02:50:21;101173.72;;;4.98;94.78